createdAt,value
2018-09-23T00:00:11.524Z,0.00
2018-09-23T00:01:11.499Z,0.00
2018-09-23T00:02:11.472Z,0.00
2018-09-23T00:03:11.443Z,0.00
2018-09-23T00:04:11.421Z,0.00
2018-09-23T00:05:11.397Z,0.00
2018-09-23T00:06:11.360Z,0.00
2018-09-23T00:07:11.339Z,0.00
2018-09-23T00:08:11.316Z,0.00
2018-09-23T00:09:11.288Z,0.00
2018-09-23T00:10:11.267Z,0.00
2018-09-23T00:11:11.229Z,0.00
2018-09-23T00:12:11.212Z,0.00
2018-09-23T00:13:11.185Z,0.00
2018-09-23T00:14:11.154Z,0.00
2018-09-23T00:15:11.135Z,0.00
2018-09-23T00:16:11.107Z,0.00
2018-09-23T00:17:11.078Z,0.00
2018-09-23T00:18:11.053Z,0.00
2018-09-23T00:19:11.020Z,0.00
2018-09-23T00:20:11.009Z,0.00
2018-09-23T00:21:10.969Z,0.00
2018-09-23T00:22:10.990Z,0.00
2018-09-23T00:23:10.923Z,0.00
2018-09-23T00:24:10.895Z,0.00
2018-09-23T00:25:10.870Z,0.00
2018-09-23T00:26:10.840Z,0.00
2018-09-23T00:27:10.812Z,0.00
2018-09-23T00:28:10.791Z,0.00
2018-09-23T00:29:10.761Z,0.00
2018-09-23T00:30:10.738Z,0.00
2018-09-23T00:31:10.712Z,0.00
2018-09-23T00:32:10.682Z,0.00
2018-09-23T00:33:10.661Z,0.00
2018-09-23T00:34:10.636Z,0.00
2018-09-23T00:35:10.608Z,0.00
2018-09-23T00:36:10.578Z,0.00
2018-09-23T00:37:10.549Z,0.00
2018-09-23T00:38:10.520Z,0.00
2018-09-23T00:39:10.497Z,0.00
2018-09-23T00:40:10.471Z,0.00
2018-09-23T00:41:10.447Z,0.00
2018-09-23T00:42:10.417Z,0.00
2018-09-23T00:43:10.386Z,0.00
2018-09-23T00:44:10.373Z,0.00
2018-09-23T00:45:10.341Z,0.00
2018-09-23T00:46:10.319Z,0.00
2018-09-23T00:47:10.292Z,0.00
2018-09-23T00:48:10.260Z,0.00
2018-09-23T00:49:10.237Z,0.00
2018-09-23T00:50:10.203Z,0.00
2018-09-23T00:51:10.183Z,0.00
2018-09-23T00:52:10.154Z,0.00
2018-09-23T00:53:10.131Z,0.00
2018-09-23T00:54:10.109Z,0.00
2018-09-23T00:55:10.074Z,0.00
2018-09-23T00:56:10.045Z,0.00
2018-09-23T00:57:10.023Z,0.00
2018-09-23T00:58:10.000Z,0.00
2018-09-23T00:59:09.975Z,0.00
2018-09-23T01:00:09.940Z,0.00
2018-09-23T01:01:09.920Z,0.00
2018-09-23T01:02:09.890Z,0.00
2018-09-23T01:03:09.862Z,0.00
2018-09-23T01:04:09.860Z,0.00
2018-09-23T01:05:09.812Z,0.00
2018-09-23T01:06:09.791Z,0.00
2018-09-23T01:07:09.758Z,0.00
2018-09-23T01:08:09.730Z,0.00
2018-09-23T01:09:09.716Z,0.00
2018-09-23T01:10:09.676Z,0.00
2018-09-23T01:11:09.651Z,0.00
2018-09-23T01:12:09.633Z,0.00
2018-09-23T01:13:09.607Z,0.00
2018-09-23T01:14:09.583Z,0.00
2018-09-23T01:15:09.549Z,0.00
2018-09-23T01:16:09.525Z,0.00
2018-09-23T01:17:09.502Z,0.00
2018-09-23T01:18:09.471Z,0.00
2018-09-23T01:19:09.445Z,0.00
2018-09-23T01:20:09.419Z,0.00
2018-09-23T01:21:09.391Z,0.00
2018-09-23T01:22:09.369Z,0.00
2018-09-23T01:23:09.338Z,0.00
2018-09-23T01:24:09.316Z,0.00
2018-09-23T01:25:09.282Z,0.00
2018-09-23T01:26:09.270Z,0.00
2018-09-23T01:27:09.240Z,0.00
2018-09-23T01:28:09.207Z,0.00
2018-09-23T01:29:09.186Z,0.00
2018-09-23T01:30:09.152Z,0.00
2018-09-23T01:31:09.129Z,0.00
2018-09-23T01:32:09.112Z,0.00
2018-09-23T01:33:09.076Z,0.00
2018-09-23T01:34:09.058Z,0.00
2018-09-23T01:35:09.031Z,0.00
2018-09-23T01:36:08.999Z,0.00
2018-09-23T01:37:08.972Z,0.00
2018-09-23T01:38:08.951Z,0.00
2018-09-23T01:39:08.924Z,0.00
2018-09-23T01:40:08.895Z,0.00
2018-09-23T01:41:08.865Z,0.00
2018-09-23T01:42:08.843Z,0.00
2018-09-23T01:43:08.810Z,0.00
2018-09-23T01:44:08.790Z,0.00
2018-09-23T01:45:08.766Z,0.00
2018-09-23T01:46:08.738Z,0.00
2018-09-23T01:47:08.712Z,0.00
2018-09-23T01:48:08.680Z,0.00
2018-09-23T01:49:08.651Z,0.00
2018-09-23T01:50:08.637Z,0.00
2018-09-23T01:51:08.730Z,0.00
2018-09-23T01:52:08.578Z,0.00
2018-09-23T01:53:08.558Z,0.00
2018-09-23T01:54:08.528Z,0.00
2018-09-23T01:55:08.501Z,0.00
2018-09-23T01:56:08.476Z,0.00
2018-09-23T01:57:08.453Z,0.00
2018-09-23T01:58:08.423Z,0.00
2018-09-23T01:59:08.391Z,0.00
2018-09-23T02:00:08.371Z,0.00
2018-09-23T02:01:08.338Z,0.00
2018-09-23T02:02:08.318Z,0.00
2018-09-23T02:03:08.293Z,0.00
2018-09-23T02:04:08.269Z,0.00
2018-09-23T02:05:08.232Z,0.00
2018-09-23T02:06:08.223Z,0.00
2018-09-23T02:07:08.186Z,0.00
2018-09-23T02:08:08.151Z,0.00
2018-09-23T02:09:08.135Z,0.00
2018-09-23T02:10:08.106Z,0.00
2018-09-23T02:11:08.079Z,0.00
2018-09-23T02:12:08.054Z,0.00
2018-09-23T02:13:08.024Z,0.00
2018-09-23T02:14:08.005Z,0.00
2018-09-23T02:15:07.973Z,0.00
2018-09-23T02:16:07.949Z,0.00
2018-09-23T02:17:07.920Z,0.00
2018-09-23T02:18:07.895Z,0.00
2018-09-23T02:19:07.863Z,0.00
2018-09-23T02:20:07.843Z,0.00
2018-09-23T02:21:07.816Z,0.00
2018-09-23T02:22:07.790Z,0.00
2018-09-23T02:23:07.770Z,0.00
2018-09-23T02:24:07.741Z,0.00
2018-09-23T02:25:07.705Z,0.00
2018-09-23T02:26:07.694Z,0.00
2018-09-23T02:27:07.666Z,0.00
2018-09-23T02:28:07.630Z,0.00
2018-09-23T02:29:07.624Z,0.00
2018-09-23T02:30:07.581Z,0.00
2018-09-23T02:31:07.555Z,0.00
2018-09-23T02:32:07.526Z,0.00
2018-09-23T02:33:07.495Z,0.00
2018-09-23T02:34:07.478Z,0.00
2018-09-23T02:35:07.451Z,0.00
2018-09-23T02:36:07.419Z,0.00
2018-09-23T02:37:07.391Z,0.00
2018-09-23T02:38:07.375Z,0.00
2018-09-23T02:39:07.347Z,0.00
2018-09-23T02:40:07.311Z,0.00
2018-09-23T02:41:07.288Z,0.00
2018-09-23T02:42:07.266Z,0.00
2018-09-23T02:43:07.233Z,0.00
2018-09-23T02:44:07.214Z,0.00
2018-09-23T02:45:07.187Z,0.00
2018-09-23T02:46:07.163Z,0.00
2018-09-23T02:47:07.135Z,0.00
2018-09-23T02:48:07.102Z,0.00
2018-09-23T02:49:07.079Z,0.00
2018-09-23T02:50:07.057Z,0.00
2018-09-23T02:51:07.024Z,0.00
2018-09-23T02:52:07.002Z,0.00
2018-09-23T02:53:06.979Z,0.00
2018-09-23T02:54:06.950Z,0.00
2018-09-23T02:55:06.922Z,0.00
2018-09-23T02:56:06.893Z,0.00
2018-09-23T02:57:06.868Z,0.00
2018-09-23T02:58:06.846Z,0.00
2018-09-23T02:59:06.820Z,0.00
2018-09-23T03:00:06.793Z,0.00
2018-09-23T03:01:06.775Z,0.00
2018-09-23T03:02:06.735Z,0.00
2018-09-23T03:03:06.714Z,0.00
2018-09-23T03:04:06.684Z,0.00
2018-09-23T03:05:06.662Z,0.00
2018-09-23T03:06:06.633Z,0.00
2018-09-23T03:07:06.607Z,0.00
2018-09-23T03:08:06.590Z,0.00
2018-09-23T03:09:06.555Z,0.00
2018-09-23T03:10:06.534Z,0.00
2018-09-23T03:11:06.510Z,0.00
2018-09-23T03:12:06.476Z,0.00
2018-09-23T03:13:06.453Z,0.00
2018-09-23T03:14:06.421Z,0.00
2018-09-23T03:15:06.401Z,0.00
2018-09-23T03:16:06.366Z,0.00
2018-09-23T03:17:06.344Z,0.00
2018-09-23T03:18:06.324Z,0.00
2018-09-23T03:19:06.295Z,0.00
2018-09-23T03:20:06.270Z,0.00
2018-09-23T03:21:06.235Z,0.00
2018-09-23T03:22:06.220Z,0.00
2018-09-23T03:23:06.190Z,0.00
2018-09-23T03:24:06.166Z,0.00
2018-09-23T03:25:06.140Z,0.00
2018-09-23T03:26:06.107Z,0.00
2018-09-23T03:27:06.089Z,0.00
2018-09-23T03:28:06.064Z,0.00
2018-09-23T03:29:06.032Z,0.00
2018-09-23T03:30:06.005Z,0.00
2018-09-23T03:31:05.983Z,0.00
2018-09-23T03:32:05.955Z,0.00
2018-09-23T03:33:05.922Z,0.00
2018-09-23T03:34:05.903Z,0.00
2018-09-23T03:35:05.870Z,0.00
2018-09-23T03:36:05.850Z,0.00
2018-09-23T03:37:05.820Z,0.00
2018-09-23T03:38:05.796Z,0.00
2018-09-23T03:39:05.768Z,0.00
2018-09-23T03:40:05.742Z,0.00
2018-09-23T03:41:05.718Z,0.00
2018-09-23T03:42:05.689Z,0.00
2018-09-23T03:43:05.658Z,0.00
2018-09-23T03:44:05.634Z,0.00
2018-09-23T03:45:05.617Z,0.00
2018-09-23T03:46:05.592Z,0.00
2018-09-23T03:47:05.562Z,0.00
2018-09-23T03:48:05.532Z,0.00
2018-09-23T03:49:05.505Z,0.00
2018-09-23T03:50:05.484Z,0.00
2018-09-23T03:51:05.455Z,0.00
2018-09-23T03:52:05.432Z,0.00
2018-09-23T03:53:05.397Z,0.00
2018-09-23T03:54:05.418Z,0.00
2018-09-23T03:55:05.357Z,0.00
2018-09-23T03:56:05.322Z,0.00
2018-09-23T03:57:05.292Z,0.00
2018-09-23T03:58:05.287Z,0.00
2018-09-23T03:59:05.247Z,0.00
2018-09-23T04:00:05.226Z,0.00
2018-09-23T04:01:05.193Z,0.00
2018-09-23T04:02:05.167Z,0.00
2018-09-23T04:03:05.142Z,0.00
2018-09-23T04:04:05.111Z,0.00
2018-09-23T04:05:05.088Z,0.00
2018-09-23T04:06:05.069Z,0.00
2018-09-23T04:07:05.043Z,0.00
2018-09-23T04:08:05.010Z,0.00
2018-09-23T04:09:04.983Z,0.00
2018-09-23T04:10:04.959Z,0.00
2018-09-23T04:11:04.938Z,0.00
2018-09-23T04:12:04.964Z,0.00
2018-09-23T04:13:04.875Z,0.00
2018-09-23T04:14:04.850Z,0.00
2018-09-23T04:15:04.830Z,0.00
2018-09-23T04:16:04.810Z,0.00
2018-09-23T04:17:04.768Z,0.00
2018-09-23T04:18:04.751Z,0.00
2018-09-23T04:19:04.729Z,0.00
2018-09-23T04:20:04.690Z,0.00
2018-09-23T04:21:04.666Z,0.00
2018-09-23T04:22:04.647Z,0.00
2018-09-23T04:23:04.620Z,0.00
2018-09-23T04:24:04.590Z,0.00
2018-09-23T04:25:04.563Z,0.00
2018-09-23T04:26:04.546Z,0.00
2018-09-23T04:27:04.520Z,0.00
2018-09-23T04:28:04.482Z,0.00
2018-09-23T04:29:04.467Z,0.00
2018-09-23T04:30:04.432Z,0.00
2018-09-23T04:31:04.410Z,0.00
2018-09-23T04:32:04.381Z,0.00
2018-09-23T04:33:04.351Z,0.00
2018-09-23T04:34:04.323Z,0.00
2018-09-23T04:35:04.296Z,0.00
2018-09-23T04:36:04.277Z,0.00
2018-09-23T04:37:04.243Z,0.00
2018-09-23T04:38:04.229Z,0.00
2018-09-23T04:39:04.198Z,0.00
2018-09-23T04:40:04.168Z,0.00
2018-09-23T04:41:04.147Z,0.00
2018-09-23T04:42:04.118Z,0.00
2018-09-23T04:43:04.095Z,0.00
2018-09-23T04:44:04.061Z,0.00
2018-09-23T04:45:04.098Z,0.00
2018-09-23T04:46:04.013Z,0.00
2018-09-23T04:47:03.988Z,0.00
2018-09-23T04:48:03.963Z,0.00
2018-09-23T04:49:03.936Z,0.00
2018-09-23T04:50:03.914Z,0.00
2018-09-23T04:51:03.888Z,0.00
2018-09-23T04:52:03.850Z,0.00
2018-09-23T04:53:03.826Z,0.00
2018-09-23T04:54:03.802Z,0.00
2018-09-23T04:55:03.777Z,0.00
2018-09-23T04:56:03.748Z,0.00
2018-09-23T04:57:03.718Z,0.00
2018-09-23T04:58:03.703Z,0.00
2018-09-23T04:59:03.667Z,0.00
2018-09-23T05:00:03.646Z,0.00
2018-09-23T05:01:03.614Z,0.00
2018-09-23T05:02:03.591Z,0.00
2018-09-23T05:03:03.563Z,0.00
2018-09-23T05:04:03.536Z,0.00
2018-09-23T05:05:03.515Z,0.00
2018-09-23T05:06:03.487Z,0.00
2018-09-23T05:07:03.463Z,0.00
2018-09-23T05:08:03.431Z,0.00
2018-09-23T05:09:03.406Z,0.00
2018-09-23T05:10:03.385Z,0.00
2018-09-23T05:11:03.359Z,0.00
2018-09-23T05:12:03.323Z,0.00
2018-09-23T05:13:03.301Z,0.00
2018-09-23T05:14:03.283Z,0.00
2018-09-23T05:15:03.251Z,0.00
2018-09-23T05:16:03.230Z,0.00
2018-09-23T05:17:03.203Z,0.00
2018-09-23T05:18:03.173Z,0.00
2018-09-23T05:19:03.139Z,0.00
2018-09-23T05:20:03.119Z,0.00
2018-09-23T05:21:03.100Z,0.00
2018-09-23T05:22:03.066Z,0.00
2018-09-23T05:23:03.040Z,0.00
2018-09-23T05:24:03.024Z,0.00
2018-09-23T05:25:02.993Z,0.00
2018-09-23T05:26:02.957Z,0.00
2018-09-23T05:27:02.938Z,0.00
2018-09-23T05:28:02.908Z,0.00
2018-09-23T05:29:02.880Z,0.00
2018-09-23T05:30:02.859Z,0.00
2018-09-23T05:31:02.861Z,0.00
2018-09-23T05:32:02.813Z,0.00
2018-09-23T05:33:02.782Z,0.00
2018-09-23T05:34:02.756Z,5.63
2018-09-23T05:35:02.750Z,5.63
2018-09-23T05:36:02.700Z,5.63
2018-09-23T05:37:02.672Z,5.63
2018-09-23T05:38:02.656Z,5.63
2018-09-23T05:39:02.614Z,5.63
2018-09-23T05:40:02.598Z,5.63
2018-09-23T05:41:02.564Z,5.63
2018-09-23T05:42:02.546Z,5.63
2018-09-23T05:43:02.522Z,5.63
2018-09-23T05:44:02.516Z,5.63
2018-09-23T05:45:02.469Z,5.63
2018-09-23T05:46:02.435Z,5.63
2018-09-23T05:47:02.410Z,5.63
2018-09-23T05:48:02.388Z,5.63
2018-09-23T05:49:02.357Z,5.63
2018-09-23T05:50:02.329Z,5.63
2018-09-23T05:51:02.307Z,5.63
2018-09-23T05:52:02.275Z,5.63
2018-09-23T05:53:02.304Z,5.63
2018-09-23T05:54:02.379Z,5.63
2018-09-23T05:55:02.326Z,5.63
2018-09-23T05:56:02.177Z,5.63
2018-09-23T05:57:02.146Z,11.25
2018-09-23T05:58:02.122Z,11.25
2018-09-23T05:59:02.090Z,11.25
2018-09-23T06:00:02.078Z,11.25
2018-09-23T06:01:02.042Z,11.25
2018-09-23T06:02:02.050Z,11.25
2018-09-23T06:03:02.056Z,11.25
2018-09-23T06:04:01.973Z,11.25
2018-09-23T06:05:01.939Z,11.25
2018-09-23T06:06:01.927Z,16.88
2018-09-23T06:07:01.885Z,16.88
2018-09-23T06:08:01.865Z,16.88
2018-09-23T06:09:01.840Z,16.88
2018-09-23T06:10:01.826Z,16.88
2018-09-23T06:11:01.839Z,16.88
2018-09-23T06:12:01.753Z,22.50
2018-09-23T06:13:01.724Z,22.50
2018-09-23T06:14:01.706Z,22.50
2018-09-23T06:15:01.681Z,22.50
2018-09-23T06:16:01.648Z,22.50
2018-09-23T06:17:01.624Z,22.50
2018-09-23T06:18:02.537Z,22.50
2018-09-23T06:19:01.592Z,22.50
2018-09-23T06:20:01.547Z,22.50
2018-09-23T06:21:01.521Z,22.50
2018-09-23T06:22:01.497Z,22.50
2018-09-23T06:23:01.468Z,22.50
2018-09-23T06:24:01.439Z,22.50
2018-09-23T06:25:01.476Z,22.50
2018-09-23T06:26:01.392Z,16.88
2018-09-23T06:27:01.362Z,16.88
2018-09-23T06:28:01.339Z,11.25
2018-09-23T06:29:01.314Z,11.25
2018-09-23T06:30:01.288Z,11.25
2018-09-23T06:31:01.259Z,11.25
2018-09-23T06:32:01.229Z,11.25
2018-09-23T06:33:01.199Z,11.25
2018-09-23T06:34:01.224Z,11.25
2018-09-23T06:35:01.155Z,11.25
2018-09-23T06:36:01.126Z,11.25
2018-09-23T06:37:01.156Z,11.25
2018-09-23T06:38:01.084Z,11.25
2018-09-23T06:39:01.046Z,16.88
2018-09-23T06:40:01.022Z,16.88
2018-09-23T06:41:00.993Z,22.50
2018-09-23T06:42:00.976Z,28.13
2018-09-23T06:43:00.941Z,28.13
2018-09-23T06:44:00.922Z,33.75
2018-09-23T06:45:00.889Z,33.75
2018-09-23T06:46:00.871Z,33.75
2018-09-23T06:47:00.840Z,33.75
2018-09-23T06:48:00.819Z,33.75
2018-09-23T06:49:00.790Z,39.38
2018-09-23T06:50:00.756Z,39.38
2018-09-23T06:51:00.753Z,39.38
2018-09-23T06:52:00.700Z,39.38
2018-09-23T06:53:00.680Z,39.38
2018-09-23T06:54:00.662Z,45.00
2018-09-23T06:55:00.631Z,45.00
2018-09-23T06:56:00.609Z,45.00
2018-09-23T06:57:00.631Z,45.00
2018-09-23T06:58:00.555Z,45.00
2018-09-23T06:59:00.520Z,39.38
2018-09-23T07:00:00.500Z,39.38
2018-09-23T07:01:00.473Z,45.00
2018-09-23T07:02:00.444Z,39.38
2018-09-23T07:03:00.418Z,45.00
2018-09-23T07:04:00.395Z,50.63
2018-09-23T07:05:00.496Z,45.00
2018-09-23T07:06:00.354Z,50.63
2018-09-23T07:07:00.312Z,39.38
2018-09-23T07:08:00.292Z,45.00
2018-09-23T07:09:00.260Z,50.63
2018-09-23T07:10:00.240Z,56.25
2018-09-23T07:11:00.214Z,50.63
2018-09-23T07:12:00.185Z,50.63
2018-09-23T07:13:00.158Z,50.63
2018-09-23T07:14:00.136Z,50.63
2018-09-23T07:15:00.109Z,56.25
2018-09-23T07:16:00.075Z,50.63
2018-09-23T07:17:00.081Z,56.25
2018-09-23T07:18:00.084Z,50.63
2018-09-23T07:19:00.002Z,56.25
2018-09-23T07:19:59.968Z,56.25
2018-09-23T07:20:59.945Z,50.63
2018-09-23T07:21:59.925Z,50.63
2018-09-23T07:23:00.011Z,45.00
2018-09-23T07:23:59.986Z,56.25
2018-09-23T07:24:59.847Z,56.25
2018-09-23T07:25:59.812Z,56.25
2018-09-23T07:26:59.784Z,50.63
2018-09-23T07:27:59.768Z,45.00
2018-09-23T07:28:59.747Z,50.63
2018-09-23T07:29:59.730Z,50.63
2018-09-23T07:30:59.686Z,56.25
2018-09-23T07:31:59.702Z,61.88
2018-09-23T07:32:59.641Z,73.13
2018-09-23T07:33:59.612Z,84.38
2018-09-23T07:34:59.585Z,84.38
2018-09-23T07:35:59.550Z,84.38
2018-09-23T07:36:59.639Z,90.00
2018-09-23T07:37:59.503Z,95.63
2018-09-23T07:38:59.478Z,106.88
2018-09-23T07:39:59.491Z,101.25
2018-09-23T07:40:59.430Z,101.25
2018-09-23T07:41:59.412Z,95.63
2018-09-23T07:42:59.867Z,101.25
2018-09-23T07:43:59.344Z,95.63
2018-09-23T07:44:59.322Z,101.25
2018-09-23T07:45:59.293Z,101.25
2018-09-23T07:46:59.272Z,95.63
2018-09-23T07:47:59.257Z,84.38
2018-09-23T07:48:59.214Z,73.13
2018-09-23T07:49:59.215Z,73.13
2018-09-23T07:50:59.165Z,78.75
2018-09-23T07:51:59.137Z,84.38
2018-09-23T07:52:59.111Z,84.38
2018-09-23T07:53:59.090Z,78.75
2018-09-23T07:54:59.059Z,78.75
2018-09-23T07:55:59.039Z,78.75
2018-09-23T07:56:59.046Z,84.38
2018-09-23T07:57:58.987Z,95.63
2018-09-23T07:58:58.952Z,95.63
2018-09-23T07:59:58.925Z,101.25
2018-09-23T08:00:58.910Z,123.75
2018-09-23T08:01:58.882Z,140.63
2018-09-23T08:02:59.075Z,118.13
2018-09-23T08:03:58.827Z,118.13
2018-09-23T08:04:58.801Z,90.00
2018-09-23T08:05:58.779Z,101.25
2018-09-23T08:06:58.752Z,101.25
2018-09-23T08:07:58.718Z,84.38
2018-09-23T08:08:58.692Z,95.63
2018-09-23T08:09:58.674Z,95.63
2018-09-23T08:10:58.646Z,101.25
2018-09-23T08:11:58.615Z,112.50
2018-09-23T08:12:58.776Z,118.13
2018-09-23T08:13:58.842Z,118.13
2018-09-23T08:14:58.796Z,112.50
2018-09-23T08:15:58.517Z,95.63
2018-09-23T08:16:58.482Z,84.38
2018-09-23T08:17:58.469Z,78.75
2018-09-23T08:18:58.435Z,78.75
2018-09-23T08:19:58.427Z,95.63
2018-09-23T08:20:58.483Z,84.38
2018-09-23T08:21:58.364Z,90.00
2018-09-23T08:22:58.334Z,90.00
2018-09-23T08:23:58.309Z,78.75
2018-09-23T08:24:58.313Z,78.75
2018-09-23T08:25:58.258Z,84.38
2018-09-23T08:26:58.228Z,73.13
2018-09-23T08:27:58.206Z,73.13
2018-09-23T08:28:58.178Z,73.13
2018-09-23T08:29:58.155Z,73.13
2018-09-23T08:30:58.127Z,78.75
2018-09-23T08:31:58.098Z,84.38
2018-09-23T08:32:58.102Z,73.13
2018-09-23T08:33:58.044Z,61.88
2018-09-23T08:34:58.023Z,61.88
2018-09-23T08:35:57.990Z,56.25
2018-09-23T08:36:57.968Z,56.25
2018-09-23T08:37:57.952Z,56.25
2018-09-23T08:38:57.921Z,56.25
2018-09-23T08:39:57.941Z,61.88
2018-09-23T08:40:57.864Z,56.25
2018-09-23T08:41:57.840Z,56.25
2018-09-23T08:42:57.879Z,56.25
2018-09-23T08:43:57.784Z,50.63
2018-09-23T08:44:57.765Z,45.00
2018-09-23T08:45:57.730Z,45.00
2018-09-23T08:46:57.711Z,56.25
2018-09-23T08:47:57.728Z,67.50
2018-09-23T08:48:57.671Z,73.13
2018-09-23T08:49:57.627Z,78.75
2018-09-23T08:50:57.612Z,78.75
2018-09-23T08:51:57.639Z,78.75
2018-09-23T08:52:57.552Z,78.75
2018-09-23T08:53:57.527Z,84.38
2018-09-23T08:54:57.499Z,78.75
2018-09-23T08:55:57.491Z,90.00
2018-09-23T08:56:57.444Z,95.63
2018-09-23T08:57:57.436Z,101.25
2018-09-23T08:58:57.398Z,101.25
2018-09-23T08:59:57.369Z,95.63
2018-09-23T09:00:57.345Z,106.88
2018-09-23T09:01:57.330Z,106.88
2018-09-23T09:02:57.297Z,106.88
2018-09-23T09:03:57.275Z,95.63
2018-09-23T09:04:57.249Z,90.00
2018-09-23T09:05:57.217Z,90.00
2018-09-23T09:06:57.188Z,84.38
2018-09-23T09:07:57.161Z,84.38
2018-09-23T09:08:57.132Z,84.38
2018-09-23T09:09:57.120Z,95.63
2018-09-23T09:10:57.089Z,90.00
2018-09-23T09:11:57.088Z,101.25
2018-09-23T09:12:57.031Z,78.75
2018-09-23T09:13:57.006Z,84.38
2018-09-23T09:14:56.983Z,78.75
2018-09-23T09:15:56.955Z,61.88
2018-09-23T09:16:56.927Z,73.13
2018-09-23T09:17:56.899Z,61.88
2018-09-23T09:18:56.912Z,61.88
2018-09-23T09:19:56.856Z,61.88
2018-09-23T09:20:56.820Z,50.63
2018-09-23T09:21:56.806Z,50.63
2018-09-23T09:22:56.772Z,45.00
2018-09-23T09:23:56.751Z,33.75
2018-09-23T09:24:56.723Z,33.75
2018-09-23T09:25:56.708Z,39.38
2018-09-23T09:26:56.672Z,50.63
2018-09-23T09:27:56.653Z,61.88
2018-09-23T09:28:56.613Z,78.75
2018-09-23T09:29:56.598Z,67.50
2018-09-23T09:30:56.565Z,61.88
2018-09-23T09:31:56.547Z,61.88
2018-09-23T09:32:56.515Z,78.75
2018-09-23T09:33:56.488Z,78.75
2018-09-23T09:34:56.462Z,73.13
2018-09-23T09:35:56.430Z,78.75
2018-09-23T09:36:56.406Z,90.00
2018-09-23T09:37:56.391Z,95.63
2018-09-23T09:38:56.359Z,101.25
2018-09-23T09:39:56.339Z,112.50
2018-09-23T09:40:56.307Z,123.75
2018-09-23T09:41:56.290Z,123.75
2018-09-23T09:42:56.254Z,123.75
2018-09-23T09:43:56.323Z,106.88
2018-09-23T09:44:56.201Z,95.63
2018-09-23T09:45:56.180Z,90.00
2018-09-23T09:46:56.149Z,90.00
2018-09-23T09:47:56.129Z,90.00
2018-09-23T09:48:56.097Z,90.00
2018-09-23T09:49:56.080Z,90.00
2018-09-23T09:50:56.043Z,101.25
2018-09-23T09:51:56.026Z,106.88
2018-09-23T09:52:56.006Z,118.13
2018-09-23T09:53:55.974Z,123.75
2018-09-23T09:54:55.951Z,123.75
2018-09-23T09:55:55.925Z,112.50
2018-09-23T09:56:55.893Z,123.75
2018-09-23T09:57:55.876Z,118.13
2018-09-23T09:58:55.844Z,118.13
2018-09-23T09:59:55.863Z,106.88
2018-09-23T10:00:55.786Z,112.50
2018-09-23T10:01:55.788Z,123.75
2018-09-23T10:02:55.860Z,106.88
2018-09-23T10:03:55.790Z,101.25
2018-09-23T10:04:55.686Z,112.50
2018-09-23T10:05:55.656Z,112.50
2018-09-23T10:06:55.631Z,112.50
2018-09-23T10:07:55.609Z,106.88
2018-09-23T10:08:55.586Z,106.88
2018-09-23T10:09:55.558Z,123.75
2018-09-23T10:10:55.524Z,140.63
2018-09-23T10:11:55.512Z,135.00
2018-09-23T10:12:55.481Z,151.88
2018-09-23T10:13:55.454Z,146.25
2018-09-23T10:14:55.431Z,118.13
2018-09-23T10:15:55.419Z,101.25
2018-09-23T10:16:55.372Z,95.63
2018-09-23T10:17:55.350Z,73.13
2018-09-23T10:18:55.329Z,61.88
2018-09-23T10:19:55.291Z,61.88
2018-09-23T10:20:55.277Z,45.00
2018-09-23T10:21:55.602Z,39.38
2018-09-23T10:22:55.299Z,39.38
2018-09-23T10:23:55.300Z,33.75
2018-09-23T10:24:55.161Z,39.38
2018-09-23T10:25:55.145Z,50.63
2018-09-23T10:26:55.113Z,56.25
2018-09-23T10:27:55.115Z,50.63
2018-09-23T10:28:55.064Z,50.63
2018-09-23T10:29:55.078Z,56.25
2018-09-23T10:30:55.080Z,56.25
2018-09-23T10:31:55.062Z,50.63
2018-09-23T10:32:54.960Z,50.63
2018-09-23T10:33:54.932Z,50.63
2018-09-23T10:34:54.909Z,39.38
2018-09-23T10:35:54.883Z,39.38
2018-09-23T10:36:54.857Z,39.38
2018-09-23T10:37:54.837Z,45.00
2018-09-23T10:38:54.801Z,45.00
2018-09-23T10:39:54.779Z,45.00
2018-09-23T10:40:54.752Z,39.38
2018-09-23T10:41:54.729Z,33.75
2018-09-23T10:42:54.693Z,33.75
2018-09-23T10:43:54.681Z,39.38
2018-09-23T10:44:54.643Z,39.38
2018-09-23T10:45:54.633Z,39.38
2018-09-23T10:46:54.594Z,33.75
2018-09-23T10:47:54.580Z,22.50
2018-09-23T10:48:54.542Z,22.50
2018-09-23T10:49:54.520Z,33.75
2018-09-23T10:50:54.489Z,39.38
2018-09-23T10:51:54.464Z,39.38
2018-09-23T10:52:54.436Z,39.38
2018-09-23T10:53:54.416Z,39.38
2018-09-23T10:54:54.385Z,39.38
2018-09-23T10:55:54.363Z,39.38
2018-09-23T10:56:54.333Z,39.38
2018-09-23T10:57:54.311Z,33.75
2018-09-23T10:58:54.290Z,28.13
2018-09-23T10:59:54.248Z,28.13
2018-09-23T11:00:54.226Z,28.13
2018-09-23T11:01:54.203Z,28.13
2018-09-23T11:02:54.194Z,22.50
2018-09-23T11:03:54.183Z,22.50
2018-09-23T11:04:54.145Z,28.13
2018-09-23T11:05:54.115Z,33.75
2018-09-23T11:06:54.129Z,39.38
2018-09-23T11:07:54.063Z,39.38
2018-09-23T11:08:54.031Z,33.75
2018-09-23T11:09:54.071Z,22.50
2018-09-23T11:10:53.997Z,22.50
2018-09-23T11:11:53.954Z,28.13
2018-09-23T11:12:53.934Z,33.75
2018-09-23T11:13:53.909Z,39.38
2018-09-23T11:14:53.887Z,50.63
2018-09-23T11:15:53.855Z,45.00
2018-09-23T11:16:53.830Z,73.13
2018-09-23T11:17:53.798Z,84.38
2018-09-23T11:18:53.778Z,84.38
2018-09-23T11:19:53.763Z,106.88
2018-09-23T11:20:53.716Z,112.50
2018-09-23T11:21:53.677Z,118.13
2018-09-23T11:22:53.681Z,135.00
2018-09-23T11:23:53.647Z,146.25
2018-09-23T11:24:53.652Z,151.88
2018-09-23T11:25:53.570Z,168.75
2018-09-23T11:26:53.561Z,180.00
2018-09-23T11:27:53.514Z,191.25
2018-09-23T11:28:53.491Z,191.25
2018-09-23T11:29:53.473Z,151.88
2018-09-23T11:30:53.452Z,101.25
2018-09-23T11:31:53.418Z,84.38
2018-09-23T11:32:53.387Z,84.38
2018-09-23T11:33:53.360Z,90.00
2018-09-23T11:34:53.333Z,95.63
2018-09-23T11:35:53.302Z,123.75
2018-09-23T11:36:53.282Z,135.00
2018-09-23T11:37:53.256Z,135.00
2018-09-23T11:38:53.247Z,163.13
2018-09-23T11:39:53.212Z,163.13
2018-09-23T11:40:53.175Z,151.88
2018-09-23T11:41:53.146Z,157.50
2018-09-23T11:42:53.188Z,185.63
2018-09-23T11:43:53.094Z,225.00
2018-09-23T11:44:53.095Z,196.88
2018-09-23T11:45:53.046Z,191.25
2018-09-23T11:46:53.019Z,174.38
2018-09-23T11:47:52.992Z,129.38
2018-09-23T11:48:52.986Z,101.25
2018-09-23T11:49:52.963Z,56.25
2018-09-23T11:50:52.930Z,73.13
2018-09-23T11:51:52.904Z,78.75
2018-09-23T11:52:52.875Z,67.50
2018-09-23T11:53:52.834Z,78.75
2018-09-23T11:54:52.811Z,50.63
2018-09-23T11:55:52.785Z,73.13
2018-09-23T11:56:52.750Z,78.75
2018-09-23T11:57:52.730Z,56.25
2018-09-23T11:58:52.726Z,61.88
2018-09-23T11:59:52.679Z,67.50
2018-09-23T12:00:52.646Z,73.13
2018-09-23T12:01:52.624Z,50.63
2018-09-23T12:02:52.597Z,28.13
2018-09-23T12:03:52.574Z,16.88
2018-09-23T12:04:52.549Z,22.50
2018-09-23T12:05:52.521Z,22.50
2018-09-23T12:06:52.488Z,22.50
2018-09-23T12:07:52.469Z,22.50
2018-09-23T12:08:52.443Z,16.88
2018-09-23T12:09:52.409Z,16.88
2018-09-23T12:10:52.471Z,28.13
2018-09-23T12:11:52.355Z,28.13
2018-09-23T12:12:52.332Z,45.00
2018-09-23T12:13:52.301Z,39.38
2018-09-23T12:14:52.341Z,22.50
2018-09-23T12:15:52.259Z,28.13
2018-09-23T12:16:52.226Z,50.63
2018-09-23T12:17:52.204Z,28.13
2018-09-23T12:18:52.213Z,45.00
2018-09-23T12:19:52.147Z,33.75
2018-09-23T12:20:52.128Z,50.63
2018-09-23T12:21:52.090Z,56.25
2018-09-23T12:22:52.070Z,45.00
2018-09-23T12:23:52.049Z,45.00
2018-09-23T12:24:52.017Z,39.38
2018-09-23T12:25:52.024Z,33.75
2018-09-23T12:26:51.959Z,28.13
2018-09-23T12:27:51.943Z,33.75
2018-09-23T12:28:51.922Z,39.38
2018-09-23T12:29:51.883Z,39.38
2018-09-23T12:30:51.868Z,39.38
2018-09-23T12:31:51.843Z,39.38
2018-09-23T12:32:51.822Z,67.50
2018-09-23T12:33:51.798Z,78.75
2018-09-23T12:34:51.764Z,84.38
2018-09-23T12:35:51.746Z,67.50
2018-09-23T12:36:51.710Z,78.75
2018-09-23T12:37:51.699Z,95.63
2018-09-23T12:38:51.665Z,95.63
2018-09-23T12:39:51.655Z,73.13
2018-09-23T12:40:51.624Z,56.25
2018-09-23T12:41:51.586Z,22.50
2018-09-23T12:42:51.558Z,22.50
2018-09-23T12:43:51.526Z,22.50
2018-09-23T12:44:51.509Z,22.50
2018-09-23T12:45:51.477Z,28.13
2018-09-23T12:46:51.450Z,67.50
2018-09-23T12:47:51.429Z,73.13
2018-09-23T12:48:51.390Z,73.13
2018-09-23T12:49:51.387Z,73.13
2018-09-23T12:50:51.342Z,61.88
2018-09-23T12:51:51.334Z,39.38
2018-09-23T12:52:51.288Z,45.00
2018-09-23T12:53:51.261Z,50.63
2018-09-23T12:54:51.234Z,39.38
2018-09-23T12:55:51.214Z,39.38
2018-09-23T12:56:51.178Z,39.38
2018-09-23T12:57:51.164Z,28.13
2018-09-23T12:58:51.120Z,45.00
2018-09-23T12:59:51.121Z,61.88
2018-09-23T13:00:51.058Z,67.50